Informes de METAR cercanos

 

LEXJ - Santander/Parayas, Spain
Distance from station: ESE 6km
Actualización: 06/12/2021 18:00
Light drizzle, Cubierto
Light drizzle, Cubierto
 Viento del ONO
Viento: ONO 41 km/h, Racha: 59 km/h
Temperatura: 14°C
Rocío: 13°C
Humedad: 94%
Barómetro: 1022 hPa
Resumen: Light Drizzle
Clouds: Cubierto
Visibilidad: 10 km
Cloud details: Parcialmente nuboso 335 m
Cubierto 427 m
2021/12/06 17:00 LEXJ 061700Z 29022G32KT 9999 -DZ SCT011 OVC014 14/13 Q1022
LEBB - Bilbao/Sondica, Spain
Distance from station: ESE 80km
Actualización: 06/12/2021 18:06
Drizzle, Mist, Cubierto
Drizzle, Mist, Cubierto
 Viento del ONO
Viento: ONO 24 km/h
Temperatura: 14°C
Rocío: 14°C
Humedad: 100%
Barómetro: 1021 hPa
Resumen: Drizzle, Mist
Clouds: Cubierto
Visibilidad: 3 km
Cloud details: Few Clouds 274 m
Muy nuboso 457 m
Cubierto 610 m
2021/12/06 17:06 LEBB 061706Z 29013KT 260V320 2500 DZ BR FEW009 BKN015 OVC020 14/14 Q1021 TEMPO 3000 BKN010
 
LEBL - Barcelona Airpor, Spain
Distance from station: ESE 726km
Actualización: 06/12/2021 18:00
Few Clouds
Few Clouds
 Viento del SE
Viento: SE 4 km/h
Temperatura: 12°C
Rocío: 0°C
Humedad: 44%
Barómetro: 1018 hPa
Clouds: Few Clouds
Visibilidad: 10 km
Cloud details: Few Clouds 1829 m
2021/12/06 17:00 LEBL 061700Z 14002KT 9999 FEW060 12/00 Q1018 NOSIG
LEMD - Madrid/Barajas, Spain
Distance from station: S 325km
Actualización: 06/12/2021 18:00
Muy nuboso
Muy nuboso
 Viento del ONO
Viento: ONO 15 km/h
Temperatura: 13°C
Rocío: 4°C
Humedad: 55%
Barómetro: 1024 hPa
Clouds: Muy nuboso
Visibilidad: 10 km
Cloud details: Muy nuboso 1829 m
Muy nuboso 2286 m
2021/12/06 17:00 LEMD 061700Z 30008KT 270V330 9999 BKN060 BKN075 13/04 Q1024 NOSIG
 
LPPT - Lisbon/Portela, Portugal
Distance from station: SO 663km
Actualización: 06/12/2021 18:00
Few Clouds
Few Clouds
 Viento del ONO
Viento: ONO 15 km/h
Temperatura: 15°C
Rocío: 11°C
Humedad: 77%
Barómetro: 1028 hPa
Clouds: Few Clouds
Visibilidad: 10 km
Cloud details: Few Clouds 488 m
2021/12/06 17:00 LPPT 061700Z 30008KT 9999 FEW016 15/11 Q1028
LECO - La Coruna/Alvedr, Spain
Distance from station: O 349km
Actualización: 06/12/2021 18:00
Cubierto
Cubierto
 Viento del varies
Viento: varies 2 km/h
Temperatura: 14°C
Rocío: 13°C
Humedad: 94%
Barómetro: 1024 hPa
Clouds: Cubierto
Visibilidad: 10 km
Cloud details: Parcialmente nuboso 274 m
Cubierto 549 m
2021/12/06 17:00 LECO 061700Z VRB01KT 9999 SCT009 OVC018 14/13 Q1024 TEMPO 3000 -RA BR BKN009
 
LEST - Santiago/Labacol, Spain
Distance from station: O 358km
Actualización: 06/12/2021 18:00
Light drizzle, Patches of, Niebla, Cubierto
Light drizzle, Patches of, Niebla, Cubierto
 Viento del SO
Viento: SO 6 km/h
Temperatura: 11°C
Rocío: 11°C
Humedad: 100%
Barómetro: 1024 hPa
Resumen: Light drizzle, Patches of, Niebla
Clouds: Cubierto
Visibilidad: 2 km
Cloud details: Cubierto 30 m
2021/12/06 17:00 LEST 061700Z 22003KT 160V290 1500 0800S R17/P2000 R35/0800D -DZ BCFG VV001 11/11 Q1024 TEMPO 0800 DZ FG VV001
EBBR - Brussels International Airport, Belgium
Distance from station: O 1339km
Actualización: 06/12/2021 17:50
Lluvia débil, Muy nuboso
Lluvia débil, Muy nuboso
 Viento del S
Viento: S 22 km/h
Temperatura: 4°C
Temp.Sensacion: -1°C
Rocío: 1°C
Humedad: 81%
Barómetro: 1008 hPa
Resumen: Lluvia débil
Clouds: Muy nuboso
Visibilidad: 8 km
Cloud details: Few Clouds 366 m
Muy nuboso 701 m
2021/12/06 16:50 EBBR 061650Z 19012KT 8000 -RA FEW012 BKN023 04/01 Q1008 TEMPO 3000 RASN BKN012